createdAt,value
2018-09-23T11:28:06.942Z,22.20
2018-09-23T11:30:35.114Z,22.30
2018-09-23T11:33:03.136Z,22.40
2018-09-23T11:35:31.224Z,22.30
2018-09-23T11:37:59.304Z,22.30
2018-09-23T11:40:27.416Z,22.30
2018-09-23T11:45:23.444Z,22.70
2018-09-23T11:47:51.588Z,22.80
2018-09-23T11:50:20.295Z,23.20
2018-09-23T11:55:16.261Z,23.10
2018-09-23T11:57:44.397Z,23.40
2018-09-23T12:00:12.551Z,23.00
2018-09-23T12:02:40.627Z,23.10
2018-09-23T12:05:08.838Z,23.20
2018-09-23T12:07:36.996Z,23.60
2018-09-23T12:10:12.596Z,23.80
2018-09-23T12:12:50.636Z,23.70
2018-09-23T12:15:27.487Z,23.80
2018-09-23T12:20:55.103Z,23.70
2018-09-23T12:23:40.052Z,23.40
2018-09-23T12:26:20.276Z,23.50
2018-09-23T12:28:47.940Z,23.50
2018-09-23T12:31:16.528Z,23.50
2018-09-23T12:33:44.607Z,23.80
2018-09-23T12:36:12.336Z,24.00
2018-09-23T12:38:40.424Z,23.70
2018-09-23T12:41:08.528Z,23.60
2018-09-23T12:43:36.653Z,23.60
2018-09-23T12:46:04.966Z,23.30
2018-09-23T12:51:00.863Z,23.80
2018-09-23T12:53:28.969Z,23.80
2018-09-23T12:55:57.109Z,23.70
2018-09-23T12:58:25.285Z,23.70
2018-09-23T13:00:53.359Z,23.70
2018-09-23T13:03:21.461Z,23.80
2018-09-23T13:08:17.480Z,23.60
2018-09-23T13:10:45.565Z,23.70
2018-09-23T13:13:13.648Z,23.70
2018-09-23T13:15:41.729Z,23.60
2018-09-23T13:18:14.809Z,23.60
2018-09-23T13:20:42.771Z,23.50
2018-09-23T13:25:38.872Z,23.30
2018-09-23T13:28:06.997Z,23.50
2018-09-23T13:37:58.465Z,23.40
2018-09-23T13:40:26.544Z,23.40
2018-09-23T13:42:54.647Z,23.50
2018-09-23T13:45:22.749Z,23.80
2018-09-23T13:47:50.862Z,24.10
2018-09-23T13:50:19.116Z,24.30
2018-09-23T13:52:47.292Z,24.50
2018-09-23T13:57:43.268Z,24.30
2018-09-23T14:00:11.386Z,24.30
2018-09-23T14:05:07.511Z,24.20
2018-09-23T14:07:35.504Z,24.20
2018-09-23T14:10:03.668Z,24.20
2018-09-23T14:12:31.768Z,24.10
2018-09-23T14:17:28.064Z,23.60
2018-09-23T14:19:56.148Z,23.50
2018-09-23T14:22:24.217Z,23.50
2018-09-23T14:24:52.296Z,23.50
2018-09-23T14:29:48.292Z,23.30
2018-09-23T14:34:44.228Z,23.50
2018-09-23T14:37:11.853Z,23.40
2018-09-23T14:39:39.932Z,23.50
2018-09-23T14:42:08.020Z,23.20
2018-09-23T14:44:36.153Z,23.20
2018-09-23T14:47:04.232Z,23.20
2018-09-23T14:49:32.333Z,23.30
2018-09-23T14:54:28.405Z,23.20
2018-09-23T14:56:56.451Z,23.20
2018-09-23T14:59:24.580Z,23.10
2018-09-23T15:04:20.519Z,23.10
2018-09-23T15:06:48.609Z,23.10
2018-09-23T15:09:16.688Z,23.00
2018-09-23T15:11:44.764Z,22.90
2018-09-23T15:16:40.728Z,23.00
2018-09-23T15:19:08.802Z,22.90
2018-09-23T15:21:36.867Z,22.90
2018-09-23T15:24:04.950Z,22.90
2018-09-23T15:26:33.043Z,22.90
2018-09-23T15:29:01.143Z,22.80
2018-09-23T15:31:29.224Z,23.00
2018-09-23T15:33:57.386Z,23.00
2018-09-23T15:36:25.481Z,23.10
2018-09-23T15:38:53.655Z,23.10
2018-09-23T15:43:49.623Z,23.10
2018-09-23T15:46:17.688Z,23.20
2018-09-23T15:48:45.767Z,23.20
2018-09-23T15:51:13.840Z,23.00
2018-09-23T15:56:09.787Z,22.90
2018-09-23T15:58:37.877Z,22.80
2018-09-23T16:01:06.384Z,22.80
2018-09-23T16:03:34.479Z,22.80
2018-09-23T16:08:30.460Z,22.50
2018-09-23T16:10:58.556Z,22.50
2018-09-23T16:13:26.640Z,22.40
2018-09-23T16:18:22.739Z,22.30
2018-09-23T16:20:50.776Z,22.40
2018-09-23T16:23:18.951Z,22.40
2018-09-23T16:25:47.411Z,22.30
2018-09-23T16:28:15.445Z,22.30
2018-09-23T16:30:43.597Z,21.60
2018-09-23T16:33:12.240Z,22.30
2018-09-23T16:38:08.818Z,22.00
